Time;durP1;ratioP1;P1;durP2;ratioP2;P2;SDS_P1;SDS_P2;PMS_P1;PMS_P2;Temp;Humidity;BMP_temperature;BMP_pressure;BME280_temperature;BME280_humidity;BME280_pressure;Samples;Min_cycle;Max_cycle;Signal;HPM_P1;HPM_P2
2023/08/30 00:00:36;;;;;;;22.20;12.40;;;;;;;17.74;100.00;98680.87;108837;1262;59435;-65
2023/08/30 00:03:33;;;;;;;21.80;12.80;;;;;;;17.74;100.00;98675.40;108865;1262;61111;-66
2023/08/30 00:06:20;;;;;;;24.60;13.70;;;;;;;17.72;100.00;98679.40;108729;1262;71886;-67
2023/08/30 00:09:07;;;;;;;25.20;13.40;;;;;;;17.71;100.00;98686.80;108839;1262;68788;-65
2023/08/30 00:11:53;;;;;;;25.50;13.50;;;;;;;17.71;100.00;98682.55;108773;1262;73748;-64
2023/08/30 00:14:39;;;;;;;26.10;14.20;;;;;;;17.69;100.00;98687.05;108845;1262;59775;-65
2023/08/30 00:17:25;;;;;;;24.70;13.00;;;;;;;17.69;100.00;98686.89;108849;1262;61459;-65
2023/08/30 00:20:12;;;;;;;26.70;12.50;;;;;;;17.69;100.00;98691.07;108831;1262;72173;-65
2023/08/30 00:22:58;;;;;;;28.00;13.80;;;;;;;17.68;100.00;98684.45;108822;1263;67879;-65
2023/08/30 00:25:44;;;;;;;27.30;12.80;;;;;;;17.67;100.00;98682.73;108903;1258;70697;-66
2023/08/30 00:28:31;;;;;;;24.60;12.30;;;;;;;17.65;100.00;98685.46;108980;1258;59559;-63
2023/08/30 00:31:17;;;;;;;28.80;12.60;;;;;;;17.62;100.00;98680.81;109050;1258;61828;-64
2023/08/30 00:34:03;;;;;;;26.40;12.70;;;;;;;17.60;100.00;98676.23;109070;1258;73056;-65
2023/08/30 00:36:50;;;;;;;27.20;12.30;;;;;;;17.61;100.00;98669.51;109040;1258;66541;-65
2023/08/30 00:39:38;;;;;;;27.80;12.50;;;;;;;17.60;100.00;98663.86;108993;1258;71208;-63
2023/08/30 00:42:25;;;;;;;28.70;12.00;;;;;;;17.59;100.00;98658.56;109063;1258;59337;-66
2023/08/30 00:45:13;;;;;;;26.80;12.60;;;;;;;17.58;100.00;98657.69;109037;1258;60392;-64
2023/08/30 00:48:00;;;;;;;28.60;13.00;;;;;;;17.55;100.00;98654.29;109056;1258;73056;-65
2023/08/30 00:50:48;;;;;;;29.40;13.40;;;;;;;17.54;100.00;98651.55;109051;1257;68227;-65
2023/08/30 00:53:36;;;;;;;26.70;12.50;;;;;;;17.52;100.00;98649.85;109111;1257;72469;-66
2023/08/30 00:56:23;;;;;;;27.00;12.50;;;;;;;17.51;100.00;98646.13;109030;1258;58341;-65
2023/08/30 00:59:10;;;;;;;32.10;14.40;;;;;;;17.51;100.00;98650.66;108907;1259;60224;-66
2023/08/30 01:01:57;;;;;;;27.50;13.30;;;;;;;17.51;100.00;98647.60;109005;1257;72817;-64
2023/08/30 01:04:45;;;;;;;26.60;13.30;;;;;;;17.51;100.00;98645.81;109041;1257;67871;-64
2023/08/30 01:07:32;;;;;;;26.60;13.40;;;;;;;17.51;100.00;98651.98;108855;1258;73628;-65
2023/08/30 01:10:25;;;;;;;29.10;14.50;;;;;;;17.50;100.00;98655.83;108974;1257;60494;-64
2023/08/30 01:13:18;;;;;;;29.60;14.10;;;;;;;17.50;100.00;98656.87;109056;1258;61354;-65
2023/08/30 01:16:05;;;;;;;29.10;13.90;;;;;;;17.51;100.00;98655.75;109013;1258;72931;-65
2023/08/30 01:18:56;;;;;;;27.00;13.90;;;;;;;17.50;100.00;98657.23;109061;1258;68911;-64
2023/08/30 01:22:19;;;;;;;27.50;13.20;;;;;;;17.47;100.00;98653.12;109082;1258;70718;-64
2023/08/30 01:25:19;;;;;;;27.60;13.20;;;;;;;17.46;100.00;98649.05;109019;1258;60620;-64
2023/08/30 01:28:07;;;;;;;29.00;13.50;;;;;;;17.44;100.00;98647.40;108983;1259;60199;-66
2023/08/30 01:30:55;;;;;;;30.50;14.10;;;;;;;17.43;100.00;98645.04;109086;1257;73869;-65
2023/08/30 01:33:42;;;;;;;29.30;13.40;;;;;;;17.42;100.00;98646.31;109087;1257;68890;-64
2023/08/30 01:36:31;;;;;;;27.60;12.90;;;;;;;17.41;100.00;98641.92;108978;1258;73553;-65
2023/08/30 01:39:18;;;;;;;26.80;12.10;;;;;;;17.39;100.00;98637.23;109015;1257;59605;-65
2023/08/30 01:42:05;;;;;;;28.00;11.90;;;;;;;17.35;100.00;98635.64;109126;1257;60187;-64
2023/08/30 01:44:54;;;;;;;27.90;12.40;;;;;;;17.33;100.00;98637.59;109119;1257;74079;-65
2023/08/30 01:47:45;;;;;;;28.70;12.60;;;;;;;17.33;100.00;98635.59;109086;1257;67727;-64
2023/08/30 01:50:34;;;;;;;25.60;10.50;;;;;;;17.30;100.00;98628.82;109052;1259;73535;-64
2023/08/30 01:53:21;;;;;;;26.90;11.90;;;;;;;17.27;100.00;98631.01;109027;1257;59306;-64
2023/08/30 01:56:08;;;;;;;26.90;12.30;;;;;;;17.28;100.00;98626.84;109024;1258;60397;-65
2023/08/30 01:58:54;;;;;;;24.80;11.10;;;;;;;17.31;100.00;98627.09;109063;1257;71966;-65
2023/08/30 02:01:40;;;;;;;22.80;9.90;;;;;;;17.30;100.00;98626.59;109121;1257;68717;-64
2023/08/30 02:04:27;;;;;;;24.90;11.00;;;;;;;17.29;100.00;98626.30;109069;1261;71246;-64
2023/08/30 02:07:24;;;;;;;26.60;10.50;;;;;;;17.29;100.00;98631.06;109013;1258;59520;-65
2023/08/30 02:10:17;;;;;;;21.10;8.50;;;;;;;17.31;100.00;98630.53;108947;1259;58829;-64
2023/08/30 02:13:04;;;;;;;15.10;6.40;;;;;;;17.29;100.00;98626.05;109027;1258;73690;-65
2023/08/30 02:15:54;;;;;;;14.40;5.60;;;;;;;17.24;100.00;98627.92;108807;1258;67952;-65
2023/08/30 02:18:41;;;;;;;11.30;4.70;;;;;;;17.20;100.00;98624.71;108931;1262;71206;-64
2023/08/30 02:21:27;;;;;;;9.70;4.10;;;;;;;17.16;100.00;98623.70;108977;1258;58298;-65
2023/08/30 02:24:14;;;;;;;10.20;3.80;;;;;;;17.11;100.00;98620.08;109040;1258;59017;-65
2023/08/30 02:27:00;;;;;;;9.10;3.20;;;;;;;17.10;100.00;98610.80;109039;1259;71631;-65
2023/08/30 02:29:46;;;;;;;8.60;2.70;;;;;;;17.07;100.00;98613.30;109066;1258;68670;-63
2023/08/30 02:32:34;;;;;;;7.50;2.80;;;;;;;17.04;100.00;98614.77;109012;1259;73379;-64
2023/08/30 02:35:20;;;;;;;6.80;2.20;;;;;;;16.99;100.00;98606.55;108994;1258;60292;-65
2023/08/30 02:38:07;;;;;;;6.50;2.20;;;;;;;16.99;100.00;98606.06;109047;1258;61196;-65
2023/08/30 02:40:53;;;;;;;6.70;2.10;;;;;;;16.98;100.00;98607.13;109065;1258;72785;-64
2023/08/30 02:43:39;;;;;;;6.00;2.00;;;;;;;16.97;100.00;98610.63;109085;1258;68429;-67
2023/08/30 02:46:26;;;;;;;7.50;2.00;;;;;;;16.93;100.00;98604.69;109003;1258;73950;-65
2023/08/30 02:49:12;;;;;;;5.40;1.50;;;;;;;16.95;100.00;98608.38;109041;1258;59451;-65
2023/08/30 02:51:58;;;;;;;6.40;1.40;;;;;;;16.93;100.00;98611.14;109044;1258;61609;-64
2023/08/30 02:54:44;;;;;;;5.00;1.30;;;;;;;16.89;100.00;98611.44;108960;1258;71651;-66
2023/08/30 02:57:31;;;;;;;4.80;1.30;;;;;;;16.87;100.00;98615.31;109048;1258;67903;-63
2023/08/30 03:00:17;;;;;;;4.60;1.30;;;;;;;16.87;100.00;98617.55;109034;1258;72480;-65
2023/08/30 03:03:06;;;;;;;4.50;1.10;;;;;;;16.86;100.00;98615.98;109014;1258;59477;-66
2023/08/30 03:05:53;;;;;;;4.60;1.20;;;;;;;16.88;100.00;98620.16;108738;1262;60461;-65
2023/08/30 03:08:40;;;;;;;5.20;1.20;;;;;;;16.89;100.00;98625.67;108812;1262;73012;-65
2023/08/30 03:11:27;;;;;;;5.10;1.50;;;;;;;16.88;100.00;98627.16;108786;1262;68725;-68
2023/08/30 03:14:16;;;;;;;4.30;1.20;;;;;;;16.85;100.00;98628.33;108771;1262;73599;-64
2023/08/30 03:17:03;;;;;;;4.40;1.10;;;;;;;16.83;100.00;98632.62;108830;1262;59305;-66
2023/08/30 03:19:53;;;;;;;5.00;1.60;;;;;;;16.82;100.00;98632.57;108757;1262;61292;-65
2023/08/30 03:22:39;;;;;;;4.80;1.40;;;;;;;16.76;100.00;98622.96;108737;1262;73838;-65
2023/08/30 03:25:30;;;;;;;4.80;1.30;;;;;;;16.76;100.00;98633.70;108753;1265;67954;-65
2023/08/30 03:28:16;;;;;;;5.20;1.90;;;;;;;16.74;100.00;98641.67;108731;1262;72662;-66
2023/08/30 03:31:13;;;;;;;5.30;1.90;;;;;;;16.69;100.00;98649.06;108815;1266;59364;-65
2023/08/30 03:33:59;;;;;;;4.70;1.60;;;;;;;16.64;100.00;98654.85;108737;1262;60345;-64
2023/08/30 03:36:50;;;;;;;6.50;2.30;;;;;;;16.62;100.00;98652.94;108965;1258;74018;-64
2023/08/30 03:39:36;;;;;;;5.90;2.60;;;;;;;16.60;100.00;98649.95;109043;1258;67733;-65
2023/08/30 03:42:23;;;;;;;6.10;3.00;;;;;;;16.59;100.00;98654.19;109029;1258;73580;-63
2023/08/30 03:45:10;;;;;;;6.60;2.90;;;;;;;16.59;100.00;98659.40;109034;1258;60572;-65
2023/08/30 03:47:56;;;;;;;6.40;3.10;;;;;;;16.57;100.00;98656.15;109043;1258;61044;-64
2023/08/30 03:50:42;;;;;;;6.40;3.40;;;;;;;16.57;100.00;98659.36;109026;1258;71470;-64
2023/08/30 03:53:30;;;;;;;6.80;3.40;;;;;;;16.57;100.00;98660.20;109026;1258;67682;-64
2023/08/30 03:56:16;;;;;;;6.30;3.10;;;;;;;16.57;100.00;98663.46;109008;1260;72696;-64
2023/08/30 03:59:03;;;;;;;6.40;3.10;;;;;;;16.59;100.00;98663.89;109072;1257;60607;-64
2023/08/30 04:01:50;;;;;;;6.30;3.30;;;;;;;16.58;100.00;98655.96;109001;1258;60555;-65
2023/08/30 04:04:36;;;;;;;7.30;3.60;;;;;;;16.58;100.00;98655.98;109045;1258;71967;-65
2023/08/30 04:07:23;;;;;;;6.00;2.70;;;;;;;16.57;100.00;98656.59;108979;1258;68716;-70
2023/08/30 04:10:09;;;;;;;6.70;3.50;;;;;;;16.58;100.00;98656.89;108934;1258;72543;-68
2023/08/30 04:12:57;;;;;;;6.20;2.90;;;;;;;16.56;100.00;98660.69;108991;1258;59642;-67
2023/08/30 04:15:45;;;;;;;6.50;3.40;;;;;;;16.56;100.00;98664.49;109013;1258;61357;-67
2023/08/30 04:18:31;;;;;;;6.70;3.00;;;;;;;16.56;100.00;98662.64;108993;1258;74159;-67
2023/08/30 04:21:17;;;;;;;6.10;2.70;;;;;;;16.57;100.00;98661.97;109011;1258;66881;-66
2023/08/30 04:24:04;;;;;;;6.20;3.00;;;;;;;16.60;100.00;98662.20;108968;1258;71389;-69
2023/08/30 04:26:54;;;;;;;6.80;2.70;;;;;;;16.61;100.00;98668.96;109023;1258;60611;-67
2023/08/30 04:29:44;;;;;;;7.30;2.30;;;;;;;16.56;100.00;98663.91;108969;1258;59999;-66
2023/08/30 04:32:30;;;;;;;5.50;2.40;;;;;;;16.59;100.00;98662.61;108997;1260;73017;-66
2023/08/30 04:35:18;;;;;;;6.60;2.70;;;;;;;16.60;100.00;98659.98;109027;1258;68132;-67
2023/08/30 04:38:04;;;;;;;6.50;2.20;;;;;;;16.61;100.00;98660.39;108977;1259;73394;-69
2023/08/30 04:40:59;;;;;;;5.50;2.20;;;;;;;16.62;100.00;98656.03;108993;1258;59299;-66
2023/08/30 04:43:46;;;;;;;5.80;2.10;;;;;;;16.61;100.00;98659.66;108971;1258;60378;-68
2023/08/30 04:46:33;;;;;;;6.20;2.30;;;;;;;16.60;100.00;98656.98;109003;1259;72902;-68
2023/08/30 04:49:19;;;;;;;7.40;2.20;;;;;;;16.56;100.00;98660.73;108936;1260;67986;-69
2023/08/30 04:52:06;;;;;;;5.60;2.20;;;;;;;16.54;100.00;98662.97;109029;1258;73763;-69
2023/08/30 04:54:52;;;;;;;5.50;2.10;;;;;;;16.52;100.00;98661.14;108925;1258;59409;-67
2023/08/30 04:57:38;;;;;;;5.50;2.20;;;;;;;16.51;100.00;98659.52;108990;1259;61336;-67
2023/08/30 05:00:25;;;;;;;5.50;2.30;;;;;;;16.51;100.00;98663.08;109003;1258;71458;-66
2023/08/30 05:03:12;;;;;;;6.10;2.40;;;;;;;16.52;100.00;98664.08;109018;1258;67908;-65
2023/08/30 05:05:59;;;;;;;5.60;2.20;;;;;;;16.51;100.00;98663.27;108970;1258;72513;-67
2023/08/30 05:08:45;;;;;;;5.40;2.00;;;;;;;16.51;100.00;98659.98;108997;1259;58348;-67
2023/08/30 05:11:31;;;;;;;5.80;2.20;;;;;;;16.53;100.00;98661.56;108924;1257;59979;-67
2023/08/30 05:14:18;;;;;;;5.70;2.30;;;;;;;16.55;100.00;98660.15;109001;1257;71924;-68
2023/08/30 05:17:04;;;;;;;5.90;2.20;;;;;;;16.58;100.00;98659.42;109065;1259;68758;-69
2023/08/30 05:19:51;;;;;;;6.10;2.40;;;;;;;16.63;100.00;98656.70;109054;1257;73520;-68
2023/08/30 05:22:37;;;;;;;5.30;2.30;;;;;;;16.68;100.00;98657.87;109015;1257;59889;-65
2023/08/30 05:25:23;;;;;;;5.30;1.80;;;;;;;16.76;100.00;98652.30;109033;1257;60568;-70
2023/08/30 05:28:10;;;;;;;6.50;2.80;;;;;;;16.83;100.00;98649.47;109050;1257;73954;-71
2023/08/30 05:30:57;;;;;;;5.60;2.20;;;;;;;16.92;100.00;98647.59;109079;1260;67866;-68
2023/08/30 05:33:48;;;;;;;5.10;1.70;;;;;;;17.01;100.00;98655.48;108997;1257;73632;-67
2023/08/30 05:37:03;;;;;;;5.10;1.50;;;;;;;17.09;100.00;98650.56;109002;1258;58395;-66
2023/08/30 05:40:09;;;;;;;4.80;1.40;;;;;;;17.11;100.00;98644.30;109060;1258;58899;-68
2023/08/30 05:42:56;;;;;;;5.00;1.50;;;;;;;17.13;100.00;98651.09;108977;1257;72958;-67
2023/08/30 05:45:42;;;;;;;5.10;1.60;;;;;;;17.19;100.00;98656.59;109095;1257;67670;-68
2023/08/30 05:48:30;;;;;;;5.80;1.30;;;;;;;17.25;100.00;98664.41;109059;1260;72526;-68
2023/08/30 05:51:17;;;;;;;5.60;1.20;;;;;;;17.32;100.00;98668.55;108958;1258;59377;-68
2023/08/30 05:54:04;;;;;;;5.50;1.30;;;;;;;17.40;100.00;98662.55;109058;1258;61021;-68
2023/08/30 05:56:50;;;;;;;4.00;1.00;;;;;;;17.46;100.00;98652.33;109033;1259;73848;-66
2023/08/30 05:59:37;;;;;;;4.60;1.20;;;;;;;17.44;100.00;98653.97;109122;1258;67568;-68
2023/08/30 06:02:23;;;;;;;4.20;1.00;;;;;;;17.40;100.00;98662.14;109086;1257;71550;-66
2023/08/30 06:05:10;;;;;;;3.70;0.90;;;;;;;17.33;100.00;98662.43;109067;1257;60408;-67
2023/08/30 06:07:57;;;;;;;4.00;1.00;;;;;;;17.29;100.00;98670.71;109065;1258;61107;-70
2023/08/30 06:10:43;;;;;;;4.90;1.20;;;;;;;17.22;100.00;98670.35;109107;1257;74168;-67
2023/08/30 06:13:29;;;;;;;5.10;1.20;;;;;;;17.19;100.00;98670.56;109079;1260;67940;-66
2023/08/30 06:16:15;;;;;;;4.10;1.10;;;;;;;17.13;100.00;98670.78;109100;1257;72617;-70
2023/08/30 06:19:02;;;;;;;5.10;1.40;;;;;;;17.11;100.00;98676.27;108964;1258;59442;-70
2023/08/30 06:21:48;;;;;;;5.10;1.60;;;;;;;17.09;100.00;98677.02;109085;1257;60163;-68
2023/08/30 06:24:35;;;;;;;5.40;1.50;;;;;;;17.10;100.00;98674.75;109032;1258;73814;-66
2023/08/30 06:27:21;;;;;;;5.30;1.80;;;;;;;17.10;100.00;98674.48;109008;1257;68781;-66
2023/08/30 06:30:08;;;;;;;5.70;2.00;;;;;;;17.13;100.00;98669.73;108981;1257;72791;-65
2023/08/30 06:32:56;;;;;;;6.20;2.30;;;;;;;17.15;100.00;98678.02;108968;1262;60431;-69
2023/08/30 06:35:42;;;;;;;6.50;2.40;;;;;;;17.16;100.00;98678.27;108991;1257;60068;-68
2023/08/30 06:38:29;;;;;;;6.60;2.60;;;;;;;17.14;100.00;98675.63;109085;1258;73668;-67
2023/08/30 06:41:16;;;;;;;6.00;2.80;;;;;;;17.12;100.00;98674.28;109082;1257;67678;-69
2023/08/30 06:44:03;;;;;;;7.10;3.40;;;;;;;17.11;100.00;98682.81;108921;1258;72704;-67
2023/08/30 06:46:49;;;;;;;6.90;3.40;;;;;;;17.12;100.00;98683.80;109057;1257;59129;-66
2023/08/30 06:49:35;;;;;;;6.70;3.50;;;;;;;17.13;100.00;98686.16;109088;1257;61357;-68
2023/08/30 06:52:22;;;;;;;6.70;3.40;;;;;;;17.13;100.00;98689.80;109083;1257;74090;-68
2023/08/30 06:55:08;;;;;;;6.40;3.20;;;;;;;17.12;100.00;98692.15;109146;1257;68188;-67
2023/08/30 06:57:55;;;;;;;7.30;3.50;;;;;;;17.11;100.00;98684.70;109064;1257;71332;-69
2023/08/30 07:00:41;;;;;;;6.80;3.20;;;;;;;17.12;100.00;98687.69;109019;1257;59358;-70
2023/08/30 07:03:27;;;;;;;6.80;2.70;;;;;;;17.15;100.00;98689.89;109126;1257;60000;-70
2023/08/30 07:06:14;;;;;;;6.00;2.60;;;;;;;17.17;100.00;98690.90;109071;1257;72701;-68
2023/08/30 07:09:00;;;;;;;7.10;3.00;;;;;;;17.21;100.00;98693.79;108953;1259;68530;-67
2023/08/30 07:11:47;;;;;;;6.20;2.40;;;;;;;17.28;100.00;98697.23;108963;1259;73575;-68
2023/08/30 07:14:33;;;;;;;5.70;2.40;;;;;;;17.38;100.00;98702.20;108959;1259;59353;-68
2023/08/30 07:17:19;;;;;;;5.90;2.20;;;;;;;17.50;100.00;98707.59;108967;1259;61172;-68
2023/08/30 07:20:08;;;;;;;5.10;1.80;;;;;;;17.66;100.00;98706.65;109012;1258;72024;-69
2023/08/30 07:22:55;;;;;;;5.20;1.60;;;;;;;17.82;100.00;98702.97;109024;1259;67586;-68
2023/08/30 07:25:40;;;;;;;5.10;1.70;;;;;;;17.99;100.00;98706.05;108922;1259;72642;-68
2023/08/30 07:28:27;;;;;;;4.70;1.30;;;;;;;18.14;100.00;98712.09;108944;1258;59415;-68
2023/08/30 07:31:15;;;;;;;5.10;1.40;;;;;;;18.27;100.00;98719.09;108984;1261;60413;-68
2023/08/30 07:34:01;;;;;;;4.60;1.30;;;;;;;18.35;100.00;98727.39;108905;1260;73764;-66
2023/08/30 07:36:47;;;;;;;5.00;1.30;;;;;;;18.41;100.00;98735.91;108981;1258;68085;-69
2023/08/30 07:39:35;;;;;;;5.00;1.20;;;;;;;18.46;100.00;98732.41;108970;1260;72510;-66
2023/08/30 07:42:21;;;;;;;4.50;1.10;;;;;;;18.51;100.00;98733.70;109011;1258;58036;-66
2023/08/30 07:45:08;;;;;;;4.50;1.10;;;;;;;18.56;100.00;98737.52;109093;1257;61158;-67
2023/08/30 07:47:55;;;;;;;4.40;1.10;;;;;;;18.61;100.00;98742.85;109095;1257;72965;-65
2023/08/30 07:50:42;;;;;;;4.20;1.00;;;;;;;18.61;99.96;98740.27;109019;1257;67856;-68
2023/08/30 07:53:29;;;;;;;4.00;0.90;;;;;;;18.60;99.97;98744.70;109094;1257;72507;-67
2023/08/30 07:56:15;;;;;;;4.50;0.90;;;;;;;18.56;99.34;98742.98;109076;1257;60286;-70
2023/08/30 07:59:02;;;;;;;4.50;0.80;;;;;;;18.52;98.61;98750.81;109075;1257;59991;-68
2023/08/30 08:01:48;;;;;;;4.90;1.00;;;;;;;18.50;98.57;98759.14;109086;1257;72907;-66
2023/08/30 08:04:36;;;;;;;4.80;1.00;;;;;;;18.45;98.51;98759.22;109046;1258;67751;-66
2023/08/30 08:07:22;;;;;;;4.80;1.10;;;;;;;18.40;98.55;98756.58;108949;1257;71580;-67
2023/08/30 08:10:09;;;;;;;5.70;1.00;;;;;;;18.35;98.90;98755.58;109040;1257;59238;-66
2023/08/30 08:12:55;;;;;;;5.10;1.30;;;;;;;18.37;99.07;98756.57;108989;1257;60184;-67
2023/08/30 08:15:45;;;;;;;4.00;1.00;;;;;;;18.39;98.97;98760.36;109052;1257;72959;-65
2023/08/30 08:18:31;;;;;;;4.90;1.10;;;;;;;18.39;98.89;98763.34;109120;1257;67758;-67
2023/08/30 08:21:18;;;;;;;4.10;1.10;;;;;;;18.36;99.05;98765.10;109084;1257;72789;-67
2023/08/30 08:24:05;;;;;;;4.40;1.10;;;;;;;18.38;99.93;98763.54;109052;1257;58260;-65
2023/08/30 08:26:52;;;;;;;5.30;1.00;;;;;;;18.42;99.16;98759.12;108976;1257;60354;-69
2023/08/30 08:29:38;;;;;;;6.20;1.20;;;;;;;18.48;97.96;98759.09;109062;1257;72857;-65
2023/08/30 08:32:25;;;;;;;5.80;1.00;;;;;;;18.61;98.01;98757.14;109094;1257;66601;-67
2023/08/30 08:35:11;;;;;;;4.90;1.10;;;;;;;18.81;97.84;98758.34;109027;1257;73582;-64
2023/08/30 08:37:57;;;;;;;5.20;1.10;;;;;;;18.84;96.32;98762.71;109045;1257;59538;-67
2023/08/30 08:40:44;;;;;;;13.10;8.00;;;;;;;18.84;95.91;98765.08;109080;1257;59608;-67
2023/08/30 08:43:32;;;;;;;7.10;2.70;;;;;;;18.76;95.61;98763.33;109089;1257;72193;-68
2023/08/30 08:46:20;;;;;;;5.80;1.40;;;;;;;18.65;95.90;98765.98;109014;1257;67965;-68
2023/08/30 08:49:14;;;;;;;5.70;1.50;;;;;;;18.59;96.42;98766.98;109032;1257;73694;-66
2023/08/30 08:52:01;;;;;;;6.20;1.40;;;;;;;18.52;97.00;98767.64;108979;1257;59602;-70
2023/08/30 08:55:01;;;;;;;4.80;1.30;;;;;;;18.46;97.48;98773.84;109087;1257;60355;-66
2023/08/30 08:57:48;;;;;;;5.00;1.30;;;;;;;18.41;97.66;98773.23;109080;1257;72767;-67
2023/08/30 09:00:35;;;;;;;6.90;1.10;;;;;;;18.36;98.32;98772.81;109090;1257;68912;-67
2023/08/30 09:03:22;;;;;;;5.30;1.00;;;;;;;18.35;98.26;98772.23;109126;1257;73468;-67
2023/08/30 09:06:08;;;;;;;5.50;1.20;;;;;;;18.38;98.26;98766.44;109036;1257;60643;-67
2023/08/30 09:08:55;;;;;;;4.90;1.10;;;;;;;18.50;98.89;98762.95;109045;1258;61178;-68
2023/08/30 09:11:41;;;;;;;5.30;1.30;;;;;;;18.66;98.27;98765.48;108998;1257;72936;-68
2023/08/30 09:14:31;;;;;;;6.10;1.30;;;;;;;18.77;97.30;98765.34;109068;1257;67590;-69
2023/08/30 09:17:17;;;;;;;5.80;1.10;;;;;;;18.86;97.50;98772.35;109092;1258;71387;-72
2023/08/30 09:20:12;;;;;;;4.90;1.10;;;;;;;18.97;96.63;98776.90;109056;1257;58647;-71
2023/08/30 09:22:58;;;;;;;5.60;1.30;;;;;;;19.10;95.81;98781.10;109084;1257;58751;-67
2023/08/30 09:25:47;;;;;;;5.30;1.20;;;;;;;19.24;95.52;98784.85;109076;1257;73788;-68
2023/08/30 09:28:43;;;;;;;4.70;1.00;;;;;;;19.36;94.42;98788.63;109059;1257;66670;-66
2023/08/30 09:31:38;;;;;;;4.90;0.90;;;;;;;19.37;93.28;98794.39;109114;1257;73708;-70
2023/08/30 09:34:25;;;;;;;4.80;1.20;;;;;;;19.36;93.92;98793.20;109004;1258;60262;-69
2023/08/30 09:37:22;;;;;;;4.10;1.10;;;;;;;19.34;93.19;98782.31;109029;1257;61009;-68
2023/08/30 09:40:09;;;;;;;4.70;1.20;;;;;;;19.33;93.71;98788.59;109092;1257;73525;-70
2023/08/30 09:42:58;;;;;;;5.00;1.30;;;;;;;19.27;93.07;98792.48;109093;1257;68850;-69
2023/08/30 09:46:06;;;;;;;5.20;1.30;;;;;;;19.22;93.98;98793.19;109030;1257;73248;-66
2023/08/30 09:48:54;;;;;;;4.80;1.10;;;;;;;19.18;93.64;98789.95;108951;1257;57905;-71
2023/08/30 09:51:46;;;;;;;6.90;1.40;;;;;;;19.14;93.45;98793.30;108998;1257;58876;-67
2023/08/30 09:54:34;;;;;;;5.50;1.20;;;;;;;19.12;93.35;98796.45;109060;1257;72947;-67
2023/08/30 09:57:26;;;;;;;5.10;1.00;;;;;;;19.14;93.05;98797.08;109022;1259;67902;-67
2023/08/30 10:00:14;;;;;;;5.00;1.10;;;;;;;19.13;92.15;98791.48;109003;1258;73533;-66
2023/08/30 10:03:01;;;;;;;4.80;1.10;;;;;;;19.12;92.17;98791.77;108968;1259;58232;-66
2023/08/30 10:06:07;;;;;;;4.80;1.20;;;;;;;19.20;92.99;98792.94;108964;1258;60287;-68
2023/08/30 10:08:56;;;;;;;4.70;1.20;;;;;;;19.29;92.83;98792.61;109016;1259;72260;-67
2023/08/30 10:11:45;;;;;;;4.90;1.20;;;;;;;19.32;91.16;98792.36;108990;1259;67898;-67
2023/08/30 10:14:31;;;;;;;5.00;1.20;;;;;;;19.36;91.90;98791.29;108994;1258;70604;-68
2023/08/30 10:17:22;;;;;;;5.20;1.20;;;;;;;19.42;91.02;98796.80;108983;1258;57763;-65
2023/08/30 10:20:09;;;;;;;5.10;1.30;;;;;;;19.44;90.84;98802.83;108985;1258;61440;-64
2023/08/30 10:22:58;;;;;;;5.50;1.10;;;;;;;19.47;90.38;98802.12;108979;1259;72740;-66
2023/08/30 10:25:46;;;;;;;4.10;1.00;;;;;;;19.42;90.64;98806.14;109016;1258;67937;-65
2023/08/30 10:28:36;;;;;;;4.40;1.00;;;;;;;19.36;90.06;98807.96;108938;1259;71336;-68
2023/08/30 10:31:23;;;;;;;4.80;1.10;;;;;;;19.26;90.32;98812.45;108969;1259;59225;-67
2023/08/30 10:34:16;;;;;;;5.10;1.20;;;;;;;19.20;90.75;98814.67;109001;1258;61230;-65
2023/08/30 10:37:07;;;;;;;4.70;1.30;;;;;;;19.19;90.72;98814.42;108913;1259;73938;-66
2023/08/30 10:40:03;;;;;;;5.70;1.60;;;;;;;19.19;90.93;98817.07;108986;1258;66778;-67
2023/08/30 10:43:03;;;;;;;4.80;1.30;;;;;;;19.16;90.45;98814.00;108978;1258;72574;-66
2023/08/30 10:46:11;;;;;;;5.60;1.10;;;;;;;19.11;91.26;98816.45;109014;1258;59563;-67
2023/08/30 10:49:11;;;;;;;4.40;0.90;;;;;;;18.94;90.58;98814.50;108942;1258;58990;-68
2023/08/30 10:52:00;;;;;;;6.30;1.20;;;;;;;18.88;91.70;98817.44;108962;1258;71633;-68
2023/08/30 10:54:48;;;;;;;6.30;0.90;;;;;;;18.86;91.94;98816.38;108996;1259;66774;-65
2023/08/30 10:57:34;;;;;;;4.80;1.00;;;;;;;18.83;91.81;98814.95;108993;1258;71268;-65
2023/08/30 11:00:21;;;;;;;5.40;1.00;;;;;;;18.83;92.65;98811.59;109017;1258;60563;-67
2023/08/30 11:03:10;;;;;;;4.20;1.00;;;;;;;18.77;92.73;98813.65;109005;1258;61146;-67
2023/08/30 11:06:01;;;;;;;5.20;1.10;;;;;;;18.75;93.51;98818.45;108960;1258;73809;-66
2023/08/30 11:08:49;;;;;;;4.70;1.00;;;;;;;18.74;93.82;98815.87;108954;1258;67754;-68
2023/08/30 11:11:37;;;;;;;3.90;0.90;;;;;;;18.70;93.94;98817.04;108599;1262;71755;-66
2023/08/30 11:14:24;;;;;;;5.20;1.70;;;;;;;18.70;94.22;98818.84;108759;1262;58351;-66
2023/08/30 11:17:10;;;;;;;4.20;1.10;;;;;;;18.69;94.51;98818.23;108774;1262;61158;-65
2023/08/30 11:20:09;;;;;;;5.20;1.30;;;;;;;18.70;94.57;98816.55;108763;1262;74065;-64
2023/08/30 11:22:55;;;;;;;4.10;1.10;;;;;;;18.68;94.46;98811.20;108670;1262;67766;-68
2023/08/30 11:25:41;;;;;;;4.40;1.20;;;;;;;18.66;95.07;98813.66;108797;1262;72531;-65
2023/08/30 11:28:27;;;;;;;6.50;1.60;;;;;;;18.65;94.62;98813.94;108763;1262;60876;-66
2023/08/30 11:31:28;;;;;;;4.70;1.20;;;;;;;18.59;94.38;98804.27;108773;1262;58853;-67
2023/08/30 11:34:14;;;;;;;4.20;1.10;;;;;;;18.60;94.29;98803.35;108641;1262;74028;-69
2023/08/30 11:37:01;;;;;;;17.70;3.00;;;;;;;18.64;93.86;98805.02;108794;1262;67819;-66
2023/08/30 11:39:52;;;;;;;11.80;1.90;;;;;;;18.67;93.56;98796.98;108634;1262;71442;-68
2023/08/30 11:42:39;;;;;;;9.60;1.90;;;;;;;18.78;93.33;98796.69;108860;1259;58508;-66
2023/08/30 11:45:25;;;;;;;6.30;1.50;;;;;;;18.98;93.51;98795.81;109084;1257;59020;-65
2023/08/30 11:48:12;;;;;;;5.50;1.30;;;;;;;19.25;93.07;98792.55;109032;1257;73179;-66
2023/08/30 11:50:59;;;;;;;5.90;1.30;;;;;;;19.51;91.88;98796.09;108965;1257;66573;-68
2023/08/30 11:53:46;;;;;;;4.20;0.80;;;;;;;19.67;90.33;98795.01;109075;1257;72680;-67
2023/08/30 11:56:32;;;;;;;5.50;1.10;;;;;;;19.67;88.55;98784.23;109068;1257;59908;-66
2023/08/30 11:59:21;;;;;;;4.70;1.30;;;;;;;19.66;88.25;98789.77;109062;1257;61309;-69
2023/08/30 12:02:07;;;;;;;6.60;1.70;;;;;;;19.70;88.56;98785.79;108999;1257;73905;-71
2023/08/30 12:04:54;;;;;;;4.90;1.40;;;;;;;19.70;87.95;98786.16;109055;1257;68870;-68
2023/08/30 12:07:42;;;;;;;7.10;1.20;;;;;;;19.71;87.97;98781.71;109084;1257;71561;-69
2023/08/30 12:10:30;;;;;;;20.70;2.90;;;;;;;19.75;87.77;98780.45;109011;1258;59264;-68
2023/08/30 12:13:27;;;;;;;5.10;1.20;;;;;;;19.77;86.71;98778.95;108927;1258;60212;-66
2023/08/30 12:16:18;;;;;;;5.60;1.20;;;;;;;19.73;86.84;98778.01;108952;1258;74082;-68
2023/08/30 12:19:12;;;;;;;4.80;0.90;;;;;;;19.71;87.07;98782.96;109051;1258;66969;-67
2023/08/30 12:22:05;;;;;;;5.30;1.30;;;;;;;19.65;86.68;98785.33;108995;1258;72762;-68
2023/08/30 12:24:53;;;;;;;5.70;1.20;;;;;;;19.59;87.04;98787.04;108994;1258;58048;-70
2023/08/30 12:27:39;;;;;;;5.50;1.20;;;;;;;19.52;87.14;98784.96;109008;1259;58867;-70
2023/08/30 12:30:25;;;;;;;5.30;1.20;;;;;;;19.46;88.03;98783.48;109042;1258;74008;-67
2023/08/30 12:33:16;;;;;;;5.70;1.40;;;;;;;19.37;88.18;98781.27;109024;1258;67240;-68
2023/08/30 12:36:03;;;;;;;6.30;1.70;;;;;;;19.27;88.53;98782.27;108953;1258;70422;-70
2023/08/30 12:38:50;;;;;;;5.00;1.20;;;;;;;19.21;89.03;98780.83;108975;1258;60766;-68
2023/08/30 12:41:36;;;;;;;5.10;1.40;;;;;;;19.17;89.16;98780.04;108984;1259;60061;-66
2023/08/30 12:44:23;;;;;;;4.90;1.20;;;;;;;19.10;89.67;98781.77;109092;1257;73055;-69
2023/08/30 12:47:13;;;;;;;5.00;1.20;;;;;;;19.00;89.54;98785.29;109101;1257;66704;-66
2023/08/30 12:50:00;;;;;;;4.90;1.10;;;;;;;18.94;89.74;98788.95;109044;1257;72352;-70
2023/08/30 12:52:47;;;;;;;5.80;1.10;;;;;;;18.82;90.22;98786.59;109048;1257;58876;-67